Time;durP1;ratioP1;P1;durP2;ratioP2;P2;SDS_P1;SDS_P2;PMS_P1;PMS_P2;Temp;Humidity;BMP_temperature;BMP_pressure;BME280_temperature;BME280_humidity;BME280_pressure;Samples;Min_cycle;Max_cycle;Signal;HPM_P1;HPM_P2
2022/10/03 00:01:36;;;;;;;1999.90;999.90;;;;;;;11.88;100.00;95164.19;6260945;22;20215;-68
2022/10/03 00:04:13;;;;;;;1999.90;999.90;;;;;;;11.81;100.00;95162.34;6223618;22;20178;-68
2022/10/03 00:06:46;;;;;;;1999.90;999.90;;;;;;;11.74;100.00;95164.41;6286509;22;20164;-67
2022/10/03 00:09:24;;;;;;;1999.90;999.90;;;;;;;11.67;100.00;95164.53;6286874;22;20176;-66
2022/10/03 00:11:55;;;;;;;1999.90;999.90;;;;;;;11.61;100.00;95168.91;6261825;22;20185;-66
2022/10/03 00:14:38;;;;;;;1999.90;999.90;;;;;;;11.54;100.00;95160.81;6286019;22;20190;-66
2022/10/03 00:17:36;;;;;;;1999.90;999.90;;;;;;;11.45;100.00;95164.06;6261167;22;20176;-66
2022/10/03 00:20:45;;;;;;;1999.90;999.90;;;;;;;11.39;100.00;95159.47;6261170;22;20232;-67
2022/10/03 00:23:25;;;;;;;1999.90;999.90;;;;;;;11.34;100.00;95173.59;6261165;22;20237;-67
2022/10/03 00:26:26;;;;;;;1999.90;999.90;;;;;;;11.27;100.00;95174.50;6286753;22;20168;-66
2022/10/03 00:29:16;;;;;;;1999.90;999.90;;;;;;;11.21;100.00;95178.09;6260857;22;20169;-67
2022/10/03 00:32:04;;;;;;;1999.90;999.90;;;;;;;11.14;100.00;95181.69;6286990;22;20169;-66
2022/10/03 00:34:43;;;;;;;1999.90;999.90;;;;;;;11.12;100.00;95186.03;6261332;22;20228;-69
2022/10/03 00:37:23;;;;;;;1999.90;999.90;;;;;;;11.07;100.00;95186.50;6261126;22;20375;-68
2022/10/03 00:40:08;;;;;;;1999.90;999.90;;;;;;;11.03;100.00;95191.25;6260810;22;20180;-68
2022/10/03 00:43:04;;;;;;;1999.90;999.90;;;;;;;11.01;100.00;95193.59;6286649;22;20165;-67
2022/10/03 00:46:07;;;;;;;1999.90;999.90;;;;;;;10.95;100.00;95197.97;6287249;22;20145;-67
2022/10/03 00:48:35;;;;;;;1999.90;999.90;;;;;;;10.93;100.00;95200.34;6286038;22;20182;-67
2022/10/03 00:51:09;;;;;;;1999.90;999.90;;;;;;;10.89;100.00;95192.19;6286173;22;20214;-67
2022/10/03 00:54:27;;;;;;;1999.90;999.90;;;;;;;10.87;100.00;95193.78;6260532;22;20175;-67
2022/10/03 00:56:52;;;;;;;1999.90;999.90;;;;;;;10.81;100.00;95204.38;6169370;23;20175;-66
2022/10/03 00:59:52;;;;;;;1999.90;999.90;;;;;;;10.78;100.00;95215.38;6252732;22;20187;-67
2022/10/03 01:02:33;;;;;;;1999.90;999.90;;;;;;;10.75;100.00;95205.25;6286186;22;20192;-68
2022/10/03 01:05:17;;;;;;;1999.90;999.90;;;;;;;10.72;100.00;95197.88;6260672;22;20187;-67
2022/10/03 01:08:01;;;;;;;1999.90;999.90;;;;;;;10.67;100.00;95201.06;6286426;22;20169;-68
2022/10/03 01:10:39;;;;;;;1999.90;999.90;;;;;;;10.65;100.00;95209.66;6286869;22;20176;-68
2022/10/03 01:13:17;;;;;;;1999.90;999.90;;;;;;;10.65;100.00;95211.59;6261146;22;20187;-67
2022/10/03 01:15:57;;;;;;;1999.90;999.90;;;;;;;10.66;100.00;95218.59;6286476;22;20199;-67
2022/10/03 01:18:46;;;;;;;1999.90;999.90;;;;;;;10.66;100.00;95204.94;6261008;22;20161;-67
2022/10/03 01:21:29;;;;;;;1999.90;999.90;;;;;;;10.66;100.00;95210.41;6260345;22;20164;-66
2022/10/03 01:24:16;;;;;;;1999.90;999.90;;;;;;;10.63;100.00;95205.78;6261089;22;20176;-67
2022/10/03 01:27:00;;;;;;;1999.90;999.90;;;;;;;10.62;100.00;95209.69;6286676;22;20457;-67
2022/10/03 01:32:51;;;;;;;1999.90;999.90;;;;;;;10.59;100.00;95218.72;6288223;22;20171;-69
2022/10/03 01:35:46;;;;;;;1999.90;999.90;;;;;;;10.60;100.00;95209.34;6286639;22;20179;-67
2022/10/03 01:38:33;;;;;;;1999.90;999.90;;;;;;;10.59;100.00;95210.53;6286062;22;20167;-68
2022/10/03 01:41:09;;;;;;;1999.90;999.90;;;;;;;10.64;100.00;95210.06;6260648;22;20183;-68
2022/10/03 01:43:48;;;;;;;1999.90;999.90;;;;;;;10.61;100.00;95214.38;6260387;22;20189;-68
2022/10/03 01:46:22;;;;;;;1999.90;999.90;;;;;;;10.61;100.00;95225.31;6260832;22;20151;-66
2022/10/03 01:48:54;;;;;;;1999.90;999.90;;;;;;;10.65;100.00;95227.97;6260982;22;20196;-65
2022/10/03 01:51:38;;;;;;;1999.90;999.90;;;;;;;10.69;100.00;95234.97;6286266;22;20186;-66
2022/10/03 01:54:25;;;;;;;1999.90;999.90;;;;;;;10.75;100.00;95229.84;6260561;22;20172;-67
2022/10/03 01:57:09;;;;;;;1999.90;999.90;;;;;;;10.81;100.00;95228.97;6260641;22;20202;-68
2022/10/03 02:00:00;;;;;;;1999.90;999.90;;;;;;;10.89;100.00;95235.13;6260151;22;20191;-67
2022/10/03 02:02:46;;;;;;;1999.90;999.90;;;;;;;10.97;100.00;95242.06;6260742;22;20188;-68
2022/10/03 02:05:37;;;;;;;1999.90;999.90;;;;;;;11.00;100.00;95236.53;6260829;22;20168;-66
2022/10/03 02:08:27;;;;;;;1999.90;999.90;;;;;;;11.04;100.00;95241.97;6260738;22;20224;-67
2022/10/03 02:11:00;;;;;;;1999.90;999.90;;;;;;;11.04;100.00;95240.00;6260369;22;20168;-65
2022/10/03 02:13:35;;;;;;;1999.90;999.90;;;;;;;11.08;100.00;95242.69;6260396;22;20180;-65
2022/10/03 02:16:13;;;;;;;1999.90;999.90;;;;;;;11.07;100.00;95241.16;6286122;22;20239;-68
2022/10/03 02:18:54;;;;;;;1999.90;999.90;;;;;;;11.10;100.00;95245.78;6285807;22;20191;-67
2022/10/03 02:21:23;;;;;;;1999.90;999.90;;;;;;;11.08;100.00;95237.22;6260114;22;20167;-67
2022/10/03 02:24:06;;;;;;;1999.90;999.90;;;;;;;11.07;100.00;95241.16;6259966;22;20173;-66
2022/10/03 02:26:50;;;;;;;1999.90;999.90;;;;;;;11.04;100.00;95231.03;6259744;22;20173;-66
2022/10/03 02:29:40;;;;;;;1999.90;999.90;;;;;;;11.01;100.00;95227.16;6285963;22;20180;-67
2022/10/03 02:32:54;;;;;;;1999.90;999.90;;;;;;;10.95;100.00;95230.75;6285937;22;20211;-66
2022/10/03 02:35:59;;;;;;;1999.90;999.90;;;;;;;10.86;100.00;95230.47;6259945;22;20176;-66
2022/10/03 02:39:02;;;;;;;1999.90;999.90;;;;;;;10.79;100.00;95246.94;6260319;22;20194;-66
2022/10/03 02:41:50;;;;;;;1999.90;999.90;;;;;;;10.71;100.00;95248.22;6285506;22;20172;-66
2022/10/03 02:44:50;;;;;;;1999.90;999.90;;;;;;;10.61;100.00;95246.38;6286354;22;20175;-69
2022/10/03 02:47:33;;;;;;;1999.90;999.90;;;;;;;10.54;100.00;95243.72;6285878;22;20184;-68
2022/10/03 02:50:26;;;;;;;1999.90;999.90;;;;;;;10.52;100.00;95243.34;6285427;22;20279;-68
2022/10/03 02:53:33;;;;;;;1999.90;999.90;;;;;;;10.48;100.00;95259.00;6285553;22;20191;-67
2022/10/03 02:56:24;;;;;;;1999.90;999.90;;;;;;;10.42;100.00;95266.06;6258903;22;20379;-67
2022/10/03 02:59:14;;;;;;;1999.90;999.90;;;;;;;10.37;100.00;95255.59;6260077;22;20187;-66
2022/10/03 03:02:27;;;;;;;1999.90;999.90;;;;;;;10.29;100.00;95268.53;6285503;22;20179;-66
2022/10/03 03:05:17;;;;;;;1999.90;999.90;;;;;;;10.24;100.00;95276.38;6190894;22;20214;-67
2022/10/03 03:08:03;;;;;;;1999.90;999.90;;;;;;;10.18;100.00;95277.97;6260131;22;20215;-67
2022/10/03 03:10:58;;;;;;;1999.90;999.90;;;;;;;10.10;100.00;95278.03;6285643;22;20169;-66
2022/10/03 03:13:54;;;;;;;1999.90;999.90;;;;;;;10.07;100.00;95259.78;6259763;22;20172;-66
2022/10/03 03:17:07;;;;;;;1999.90;999.90;;;;;;;10.03;100.00;95255.47;6286203;22;20171;-67
2022/10/03 03:20:03;;;;;;;1999.90;999.90;;;;;;;9.95;100.00;95254.75;6251364;22;20421;-66
2022/10/03 03:22:40;;;;;;;1999.90;999.90;;;;;;;9.93;100.00;95262.56;6285677;22;20165;-68
2022/10/03 03:25:37;;;;;;;1999.90;999.90;;;;;;;9.87;100.00;95275.09;6259413;22;20212;-68
2022/10/03 03:28:31;;;;;;;1999.90;999.90;;;;;;;9.82;100.00;95283.69;6259570;22;20182;-68
2022/10/03 03:30:56;;;;;;;1999.90;999.90;;;;;;;9.80;100.00;95286.03;6285286;22;20171;-69
2022/10/03 03:33:37;;;;;;;1999.90;999.90;;;;;;;9.77;100.00;95291.53;6285017;22;20179;-68
2022/10/03 03:36:25;;;;;;;1999.90;999.90;;;;;;;9.75;100.00;95289.19;6259621;22;20167;-68
2022/10/03 03:38:50;;;;;;;1999.90;999.90;;;;;;;9.73;100.00;95291.53;6285865;22;20171;-67
2022/10/03 03:41:41;;;;;;;1999.90;999.90;;;;;;;9.69;100.00;95301.69;6286826;22;20174;-68
2022/10/03 03:44:18;;;;;;;1999.90;999.90;;;;;;;9.67;100.00;95293.16;6261398;22;20504;-67
2022/10/03 03:47:02;;;;;;;1999.90;999.90;;;;;;;9.67;100.00;95304.06;6286544;22;20201;-67
2022/10/03 03:49:37;;;;;;;1999.90;999.90;;;;;;;9.62;100.00;95295.53;6286676;22;20167;-68
2022/10/03 03:52:22;;;;;;;1999.90;999.90;;;;;;;9.59;100.00;95294.34;6286352;22;20171;-68
2022/10/03 03:55:18;;;;;;;1999.90;999.90;;;;;;;9.53;100.00;95300.63;6261300;22;20164;-68
2022/10/03 03:57:53;;;;;;;1999.90;999.90;;;;;;;9.52;100.00;95299.88;6286329;22;20220;-68
2022/10/03 04:00:37;;;;;;;1999.90;999.90;;;;;;;9.53;100.00;95304.13;6261373;22;20187;-67
2022/10/03 04:03:21;;;;;;;1999.90;999.90;;;;;;;9.53;100.00;95300.63;6286399;22;20171;-67
2022/10/03 04:06:04;;;;;;;1999.90;999.90;;;;;;;9.53;100.00;95301.41;6261742;22;20321;-69
2022/10/03 04:08:45;;;;;;;1999.90;999.90;;;;;;;9.50;100.00;95304.94;6261512;22;20182;-68
2022/10/03 04:11:21;;;;;;;1999.90;999.90;;;;;;;9.50;100.00;95309.59;6286750;22;20209;-68
2022/10/03 04:14:08;;;;;;;1999.90;999.90;;;;;;;9.49;100.00;95297.16;6261108;22;20197;-67
2022/10/03 04:20:11;;;;;;;1999.90;999.90;;;;;;;9.43;100.00;95299.53;6287445;22;20183;-66
2022/10/03 04:23:01;;;;;;;1999.90;999.90;;;;;;;9.42;100.00;95303.44;6286974;22;20172;-66
2022/10/03 04:25:53;;;;;;;1999.90;999.90;;;;;;;9.39;100.00;95304.22;6286045;22;20186;-66
2022/10/03 04:29:01;;;;;;;1999.90;999.90;;;;;;;9.34;100.00;95312.03;6286756;22;20140;-66
2022/10/03 04:31:48;;;;;;;1999.90;999.90;;;;;;;9.32;100.00;95304.25;6286728;22;20327;-66
2022/10/03 04:34:34;;;;;;;1999.90;999.90;;;;;;;9.30;100.00;95305.81;6261187;22;20225;-66
2022/10/03 04:36:59;;;;;;;1999.90;999.90;;;;;;;9.27;100.00;95301.94;6286396;22;20171;-67
2022/10/03 04:39:46;;;;;;;1999.90;999.90;;;;;;;9.23;100.00;95306.63;6286059;22;20227;-67
2022/10/03 04:42:15;;;;;;;1999.90;999.90;;;;;;;9.17;100.00;95312.88;6286317;22;20230;-66
2022/10/03 04:45:05;;;;;;;1999.90;999.90;;;;;;;9.14;100.00;95319.91;6286248;22;20178;-66
2022/10/03 04:47:40;;;;;;;1999.90;999.90;;;;;;;9.14;100.00;95324.59;6286313;22;20194;-66
2022/10/03 04:50:11;;;;;;;1999.90;999.90;;;;;;;9.11;100.00;95320.69;6260541;22;20178;-66
2022/10/03 04:53:01;;;;;;;1999.90;999.90;;;;;;;9.07;100.00;95319.91;6286427;22;20179;-66
2022/10/03 04:55:39;;;;;;;1999.90;999.90;;;;;;;9.04;100.00;95334.31;6261163;22;20242;-66
2022/10/03 04:58:26;;;;;;;1999.90;999.90;;;;;;;9.04;100.00;95337.03;6261002;22;20351;-67
2022/10/03 05:01:13;;;;;;;1999.90;999.90;;;;;;;9.07;100.00;95325.38;6286584;22;20213;-66
2022/10/03 05:03:47;;;;;;;1999.90;999.90;;;;;;;9.07;100.00;95325.38;6260671;22;20173;-66
2022/10/03 05:06:25;;;;;;;1999.90;999.90;;;;;;;9.06;100.00;95332.00;6260547;22;20172;-66
2022/10/03 05:09:15;;;;;;;1999.90;999.90;;;;;;;9.04;100.00;95322.66;6261296;22;20154;-66
2022/10/03 05:11:47;;;;;;;1999.90;999.90;;;;;;;9.02;100.00;95323.06;6285899;22;20187;-66
2022/10/03 05:14:20;;;;;;;1999.90;999.90;;;;;;;8.99;100.00;95326.56;6261268;22;20195;-66
2022/10/03 05:17:02;;;;;;;1999.90;999.90;;;;;;;8.94;100.00;95321.53;6260598;22;20171;-67
2022/10/03 05:19:46;;;;;;;1999.90;999.90;;;;;;;8.92;100.00;95332.03;6260869;22;20182;-66
2022/10/03 05:22:42;;;;;;;1999.90;999.90;;;;;;;8.86;100.00;95333.59;6260888;22;20165;-68
2022/10/03 05:25:42;;;;;;;1999.90;999.90;;;;;;;8.84;100.00;95333.22;6285953;22;20187;-67
2022/10/03 05:28:33;;;;;;;1999.90;999.90;;;;;;;8.81;100.00;95349.56;6286254;22;20166;-67
2022/10/03 05:31:32;;;;;;;1999.90;999.90;;;;;;;8.81;100.00;95353.06;6260708;22;20171;-69
2022/10/03 05:34:40;;;;;;;1999.90;999.90;;;;;;;8.85;100.00;95345.66;6286552;22;20202;-67
2022/10/03 05:37:34;;;;;;;1999.90;999.90;;;;;;;8.85;100.00;95345.66;6260065;22;20167;-68
2022/10/03 05:40:10;;;;;;;1999.90;999.90;;;;;;;8.85;100.00;95356.56;6286179;22;20413;-68
2022/10/03 05:42:48;;;;;;;1999.90;999.90;;;;;;;8.91;100.00;95348.75;6261100;22;20151;-67
2022/10/03 05:45:35;;;;;;;1999.90;999.90;;;;;;;8.95;100.00;95349.53;6286512;22;20196;-66
2022/10/03 05:48:30;;;;;;;1999.90;999.90;;;;;;;9.00;100.00;95340.97;6286196;22;20212;-67
2022/10/03 05:51:21;;;;;;;1999.90;999.90;;;;;;;9.00;100.00;95344.47;6260864;22;20225;-67
2022/10/03 05:54:19;;;;;;;1999.90;999.90;;;;;;;9.04;100.00;95352.63;6286808;22;20194;-67
2022/10/03 05:57:15;;;;;;;1999.90;999.90;;;;;;;9.10;100.00;95357.28;6260543;22;20182;-67
2022/10/03 05:59:53;;;;;;;1999.90;999.90;;;;;;;9.18;100.00;95353.34;6260502;22;20185;-67
2022/10/03 06:02:50;;;;;;;1999.90;999.90;;;;;;;9.27;100.00;95356.44;6286073;22;20199;-67
2022/10/03 06:05:33;;;;;;;1999.90;999.90;;;;;;;9.31;100.00;95362.66;6260031;22;20176;-66
2022/10/03 06:08:25;;;;;;;1999.90;999.90;;;;;;;9.39;100.00;95364.16;6286426;22;20226;-68
2022/10/03 06:11:06;;;;;;;1999.90;999.90;;;;;;;9.47;100.00;95371.13;6260454;22;20167;-67
2022/10/03 06:13:50;;;;;;;1999.90;999.90;;;;;;;9.49;100.00;95368.81;6285887;22;20174;-68
2022/10/03 06:16:28;;;;;;;1999.90;999.90;;;;;;;9.54;100.00;95375.78;6260575;22;20341;-67
2022/10/03 06:19:13;;;;;;;1999.90;999.90;;;;;;;9.58;100.00;95371.88;6260688;22;20235;-66
2022/10/03 06:22:09;;;;;;;1999.90;999.90;;;;;;;9.64;100.00;95375.75;6286077;22;20171;-67
2022/10/03 06:25:02;;;;;;;1999.90;999.90;;;;;;;9.65;100.00;95374.56;6260371;22;20235;-66
2022/10/03 06:27:39;;;;;;;1999.90;999.90;;;;;;;9.81;100.00;95379.53;6286266;22;20168;-67
2022/10/03 06:30:42;;;;;;;1999.90;999.90;;;;;;;9.90;100.00;95377.94;6260117;22;20460;-67
2022/10/03 06:33:32;;;;;;;1999.90;999.90;;;;;;;9.95;100.00;95379.47;6285944;22;20171;-66
2022/10/03 06:36:19;;;;;;;1999.90;999.90;;;;;;;10.06;100.00;95386.41;6286171;22;20453;-67
2022/10/03 06:39:26;;;;;;;1999.90;999.90;;;;;;;10.08;100.00;95384.09;6285836;22;20227;-67
2022/10/03 06:42:11;;;;;;;1999.90;999.90;;;;;;;10.13;100.00;95391.06;6285448;22;20172;-67
2022/10/03 06:44:49;;;;;;;1999.90;999.90;;;;;;;10.13;100.00;95388.34;6285533;22;20184;-66
2022/10/03 06:47:50;;;;;;;1999.90;999.90;;;;;;;10.18;100.00;95392.59;6285713;22;20175;-67
2022/10/03 06:50:39;;;;;;;1999.90;999.90;;;;;;;10.28;100.00;95389.00;6260568;22;20171;-66
2022/10/03 06:53:14;;;;;;;1999.90;999.90;;;;;;;10.32;100.00;95387.03;6259665;22;20205;-67
2022/10/03 06:56:18;;;;;;;1999.90;999.90;;;;;;;10.29;100.00;95393.28;6285498;22;20453;-68
2022/10/03 06:59:04;;;;;;;1999.90;999.90;;;;;;;10.40;100.00;95393.97;6259739;22;20168;-68
2022/10/03 07:02:05;;;;;;;1999.90;999.90;;;;;;;10.49;100.00;95388.84;6259661;22;20217;-68
2022/10/03 07:04:46;;;;;;;1999.90;999.90;;;;;;;10.60;100.00;95381.34;6259599;22;20232;-68
2022/10/03 07:07:29;;;;;;;1999.90;999.90;;;;;;;10.64;100.00;95382.09;6259704;22;20172;-68
2022/10/03 07:10:19;;;;;;;1999.90;999.90;;;;;;;10.70;100.00;95389.44;6285384;22;20267;-68
2022/10/03 07:12:51;;;;;;;1999.90;999.90;;;;;;;10.73;100.00;95382.41;6285929;22;20217;-68
2022/10/03 07:15:42;;;;;;;1999.90;999.90;;;;;;;10.84;100.00;95378.41;6287075;22;20211;-68
2022/10/03 07:18:26;;;;;;;1999.90;999.90;;;;;;;10.86;100.00;95389.72;6261875;22;20180;-67
2022/10/03 07:21:30;;;;;;;1999.90;999.90;;;;;;;11.02;100.00;95378.22;6286291;22;20164;-68
2022/10/03 07:24:17;;;;;;;1999.90;999.90;;;;;;;11.09;100.00;95380.88;6286956;22;20179;-67
2022/10/03 07:27:13;;;;;;;1999.90;999.90;;;;;;;11.19;100.00;95375.31;6286998;22;20180;-68
2022/10/03 07:29:49;;;;;;;1999.90;999.90;;;;;;;11.31;100.00;95376.72;6260649;22;20231;-68
2022/10/03 07:32:52;;;;;;;1999.90;999.90;;;;;;;11.48;100.00;95375.75;6261506;22;20169;-68
2022/10/03 07:38:59;;;;;;;1999.90;999.90;;;;;;;11.88;100.00;95377.63;6288217;22;20318;-69
2022/10/03 07:42:01;;;;;;;1999.90;999.90;;;;;;;11.99;100.00;95378.25;6287129;22;20169;-70
2022/10/03 07:45:04;;;;;;;1999.90;999.90;;;;;;;12.12;100.00;95376.47;6270686;22;20174;-70
2022/10/03 07:47:54;;;;;;;1999.90;999.90;;;;;;;12.35;100.00;95373.81;6286466;22;20185;-70
2022/10/03 07:50:35;;;;;;;1999.90;999.90;;;;;;;12.37;100.00;95382.38;6286276;22;20186;-70
2022/10/03 07:53:13;;;;;;;1999.90;999.90;;;;;;;12.42;100.00;95379.19;6287024;22;20175;-69
2022/10/03 07:55:49;;;;;;;1999.90;999.90;;;;;;;12.49;100.00;95384.53;6286372;22;20183;-68
2022/10/03 07:58:53;;;;;;;1999.90;999.90;;;;;;;12.39;100.00;95380.00;6261244;22;20194;-68
2022/10/03 08:01:41;;;;;;;1999.90;999.90;;;;;;;12.31;100.00;95384.03;6260949;22;20181;-68
2022/10/03 08:04:37;;;;;;;1999.90;999.90;;;;;;;12.48;100.00;95385.72;6286087;22;20238;-68
2022/10/03 08:07:40;;;;;;;1999.90;999.90;;;;;;;12.69;100.00;95372.47;6286196;22;20182;-69
2022/10/03 08:10:33;;;;;;;1999.90;999.90;;;;;;;12.79;100.00;95370.72;6286230;22;20193;-68
2022/10/03 08:13:14;;;;;;;1999.90;999.90;;;;;;;12.76;100.00;95385.25;6286747;22;20172;-68
2022/10/03 08:16:03;;;;;;;1999.90;999.90;;;;;;;12.81;100.00;95380.09;6286747;22;20187;-68
2022/10/03 08:18:42;;;;;;;1999.90;999.90;;;;;;;12.70;100.00;95400.63;6218401;22;20175;-68
2022/10/03 08:21:20;;;;;;;1999.90;999.90;;;;;;;12.43;100.00;95413.59;6260492;22;20171;-68
2022/10/03 08:24:05;;;;;;;1999.90;999.90;;;;;;;12.42;100.00;95423.75;6260452;22;20179;-68
2022/10/03 08:26:42;;;;;;;1999.90;999.90;;;;;;;12.22;100.00;95435.78;6285946;22;20173;-68
2022/10/03 08:29:42;;;;;;;1999.90;999.90;;;;;;;12.23;100.00;95446.34;6261062;22;20148;-68
2022/10/03 08:32:14;;;;;;;1999.90;999.90;;;;;;;12.26;100.00;95452.94;6260931;22;20171;-69
2022/10/03 08:35:01;;;;;;;1999.90;999.90;;;;;;;12.25;100.00;95457.66;6287031;22;20237;-68
2022/10/03 08:38:21;;;;;;;1999.90;999.90;;;;;;;12.34;100.00;95454.38;6260729;22;20218;-68
2022/10/03 08:40:55;;;;;;;1999.90;999.90;;;;;;;12.39;100.00;95456.69;6169763;23;20257;-68
2022/10/03 08:43:52;;;;;;;1999.90;999.90;;;;;;;12.33;100.00;95452.84;6259217;22;20179;-68
2022/10/03 08:46:47;;;;;;;1999.90;999.90;;;;;;;12.36;100.00;95457.50;6286574;22;20182;-69
2022/10/03 08:49:32;;;;;;;1999.90;999.90;;;;;;;12.61;100.00;95453.19;6260626;22;20334;-69
2022/10/03 08:52:06;;;;;;;1999.90;999.90;;;;;;;12.71;100.00;95467.94;6286723;22;20175;-69
2022/10/03 08:54:50;;;;;;;1999.90;999.90;;;;;;;12.72;100.00;95470.25;6285880;22;20170;-69
2022/10/03 08:57:31;;;;;;;1999.90;999.90;;;;;;;12.75;100.00;95468.69;6285794;22;20180;-69
2022/10/03 09:00:18;;;;;;;1999.90;999.90;;;;;;;12.54;100.00;95496.38;6286641;22;20188;-69
2022/10/03 09:02:50;;;;;;;1999.90;999.90;;;;;;;12.44;100.00;95494.56;6261224;22;20182;-70
2022/10/03 09:05:34;;;;;;;1999.90;999.90;;;;;;;12.43;100.00;95498.50;6285650;22;20214;-69
2022/10/03 09:08:18;;;;;;;1999.90;999.90;;;;;;;12.55;100.00;95498.72;6286577;22;20187;-70
2022/10/03 09:11:05;;;;;;;1999.90;999.90;;;;;;;12.53;100.00;95495.59;6286151;22;20171;-70
2022/10/03 09:14:12;;;;;;;1999.90;999.90;;;;;;;12.50;100.00;95490.94;6260559;22;20186;-69
2022/10/03 09:16:43;;;;;;;1999.90;999.90;;;;;;;12.65;100.00;95497.75;6261022;22;20183;-72
2022/10/03 09:19:15;;;;;;;1999.90;999.90;;;;;;;12.98;100.00;95498.88;6285714;22;20186;-69
2022/10/03 09:21:59;;;;;;;1999.90;999.90;;;;;;;13.30;100.00;95493.66;6285858;22;20198;-71
2022/10/03 09:24:46;;;;;;;1999.90;999.90;;;;;;;13.63;100.00;95491.88;6286301;22;20203;-70
2022/10/03 09:27:24;;;;;;;1999.90;999.90;;;;;;;13.76;100.00;95499.06;6285780;22;20239;-70
2022/10/03 09:30:20;;;;;;;1999.90;999.90;;;;;;;13.97;100.00;95498.69;6285772;22;20179;-70
2022/10/03 09:33:07;;;;;;;1999.90;999.90;;;;;;;13.91;100.00;95508.59;6285911;22;20214;-69
2022/10/03 09:36:05;;;;;;;1999.90;999.90;;;;;;;14.15;100.00;95515.56;6285941;22;20173;-69
2022/10/03 09:38:49;;;;;;;1999.90;999.90;;;;;;;14.37;100.00;95535.16;6253670;22;20173;-69
2022/10/03 09:41:52;;;;;;;1999.90;999.90;;;;;;;14.59;100.00;95523.31;6286806;22;20220;-69
2022/10/03 09:44:29;;;;;;;1999.90;999.90;;;;;;;14.45;100.00;95520.09;6285945;22;20237;-70
2022/10/03 09:47:32;;;;;;;1999.90;999.90;;;;;;;15.84;100.00;95487.66;6286116;22;20175;-71
2022/10/03 09:50:20;;;;;;;1999.90;999.90;;;;;;;15.53;100.00;95459.78;6286162;22;20301;-72
2022/10/03 09:53:03;;;;;;;1999.90;999.90;;;;;;;16.30;100.00;95440.31;6286288;22;20179;-70
2022/10/03 09:56:03;;;;;;;1999.90;999.90;;;;;;;16.95;100.00;95421.38;6285688;22;20172;-70
2022/10/03 09:58:44;;;;;;;1999.90;999.90;;;;;;;18.67;100.00;95342.09;6260259;22;20179;-70
2022/10/03 10:01:38;;;;;;;1999.90;999.90;;;;;;;19.82;100.00;95321.75;6286366;22;20214;-70
2022/10/03 10:04:18;;;;;;;1999.90;999.90;;;;;;;20.21;100.00;95245.84;6180104;22;20178;-72
2022/10/03 10:07:03;;;;;;;1999.90;999.90;;;;;;;21.33;100.00;95229.09;6260646;22;20164;-71
2022/10/03 10:10:04;;;;;;;1999.90;999.90;;;;;;;20.35;100.00;95272.91;6285930;22;20235;-71
2022/10/03 10:12:48;;;;;;;1999.90;999.90;;;;;;;18.34;100.00;95049.88;6260156;22;20167;-71
2022/10/03 10:15:28;;;;;;;1999.90;999.90;;;;;;;17.58;100.00;94924.91;6286147;22;20195;-71
2022/10/03 10:18:25;;;;;;;1999.90;999.90;;;;;;;17.03;100.00;94884.63;6286116;22;20179;-72
2022/10/03 10:21:09;;;;;;;1999.90;999.90;;;;;;;16.42;100.00;94913.06;6259848;22;20188;-72
2022/10/03 10:24:00;;;;;;;1999.90;999.90;;;;;;;16.40;100.00;94932.03;6285782;22;20176;-72
2022/10/03 10:27:16;;;;;;;1999.90;999.90;;;;;;;16.17;100.00;94958.06;6285900;22;20180;-70
2022/10/03 10:30:16;;;;;;;1999.90;999.90;;;;;;;18.18;100.00;94878.81;6226704;22;20227;-71
2022/10/03 10:33:13;;;;;;;1999.90;999.90;;;;;;;19.45;100.00;94830.69;6285930;22;20188;-71
2022/10/03 10:36:09;;;;;;;1999.90;999.90;;;;;;;20.67;100.00;94822.50;6286273;22;20178;-70
2022/10/03 10:39:17;;;;;;;1999.90;999.90;;;;;;;21.66;100.00;95240.03;6285486;22;20183;-71
2022/10/03 10:42:07;;;;;;;1999.90;999.90;;;;;;;22.02;100.00;95685.56;6251800;22;20200;-70
2022/10/03 10:44:54;;;;;;;1999.90;999.90;;;;;;;22.43;100.00;95998.56;6286201;22;20191;-70
2022/10/03 10:47:52;;;;;;;1999.90;999.90;;;;;;;22.48;100.00;96133.63;6285577;22;20172;-72
2022/10/03 10:50:45;;;;;;;1999.90;999.90;;;;;;;22.55;100.00;96170.31;6232407;22;20200;-70
2022/10/03 10:53:48;;;;;;;1999.90;999.90;;;;;;;21.67;100.00;96193.28;6286566;22;20155;-71
2022/10/03 10:56:42;;;;;;;1999.90;999.90;;;;;;;19.70;100.00;96204.06;6286705;22;20186;-70
2022/10/03 10:59:59;;;;;;;1999.90;999.90;;;;;;;19.72;100.00;96211.94;6260836;22;20187;-71
2022/10/03 11:02:43;;;;;;;1999.90;999.90;;;;;;;19.75;100.00;96250.66;6261613;22;20236;-69
2022/10/03 11:05:31;;;;;;;1999.90;999.90;;;;;;;19.42;100.00;96332.41;6287025;22;20214;-70
2022/10/03 11:08:34;;;;;;;1999.90;999.90;;;;;;;18.86;100.00;96306.16;6286940;22;20172;-68
2022/10/03 11:11:28;;;;;;;1999.90;999.90;;;;;;;18.45;100.00;96308.75;6261664;22;20186;-69
2022/10/03 11:14:25;;;;;;;1999.90;999.90;;;;;;;17.81;100.00;96292.03;6261456;22;20227;-69
2022/10/03 11:17:09;;;;;;;1999.90;999.90;;;;;;;17.73;100.00;96266.53;6261739;22;20168;-68
2022/10/03 11:19:58;;;;;;;1999.90;999.90;;;;;;;17.74;100.00;96165.09;6286279;22;20192;-70
2022/10/03 11:22:49;;;;;;;1999.90;999.90;;;;;;;17.40;100.00;96179.22;6286082;22;20144;-70
2022/10/03 11:25:29;;;;;;;1999.90;999.90;;;;;;;17.63;100.00;96175.59;6286383;22;20248;-70
2022/10/03 11:28:03;;;;;;;1999.90;999.90;;;;;;;17.28;100.00;96171.63;6286696;22;20195;-69
2022/10/03 11:31:07;;;;;;;1999.90;999.90;;;;;;;17.04;100.00;96172.16;6286611;22;20179;-70
2022/10/03 11:33:57;;;;;;;1999.90;999.90;;;;;;;16.92;100.00;96125.84;6286566;22;20240;-70
2022/10/03 11:36:56;;;;;;;1999.90;999.90;;;;;;;17.03;100.00;96109.84;6286614;22;20195;-69
2022/10/03 11:39:41;;;;;;;1999.90;999.90;;;;;;;16.71;100.00;96115.28;6286352;22;20200;-71
2022/10/03 11:42:40;;;;;;;1999.90;999.90;;;;;;;16.86;100.00;96100.75;6261271;22;20199;-71
2022/10/03 11:45:17;;;;;;;1999.90;999.90;;;;;;;16.82;100.00;96093.75;6261035;22;20177;-73
2022/10/03 11:47:55;;;;;;;1999.90;999.90;;;;;;;16.73;100.00;96129.41;6260584;22;20168;-71
2022/10/03 11:50:39;;;;;;;1999.90;999.90;;;;;;;16.66;100.00;96129.53;6261524;22;20207;-70
2022/10/03 11:53:15;;;;;;;1999.90;999.90;;;;;;;16.72;100.00;96138.88;6261111;22;20175;-71
2022/10/03 11:55:58;;;;;;;1999.90;999.90;;;;;;;16.87;100.00;96151.97;6260837;22;20205;-71
2022/10/03 11:58:34;;;;;;;1999.90;999.90;;;;;;;17.16;100.00;96157.69;6261374;22;20171;-70
2022/10/03 12:01:29;;;;;;;1999.90;999.90;;;;;;;17.37;100.00;96168.28;6261129;22;20188;-70
2022/10/03 12:04:19;;;;;;;1999.90;999.90;;;;;;;17.06;100.00;96197.31;6261155;22;20172;-71
2022/10/03 12:09:58;;;;;;;1999.90;999.90;;;;;;;16.60;100.00;96208.47;6287684;22;20139;-70
2022/10/03 12:12:36;;;;;;;1999.90;999.90;;;;;;;16.58;100.00;96194.31;6260548;22;20250;-71
2022/10/03 12:15:33;;;;;;;1999.90;999.90;;;;;;;16.94;100.00;96195.22;6260983;22;20176;-71
2022/10/03 12:18:12;;;;;;;1999.90;999.90;;;;;;;17.10;100.00;96200.78;6286592;22;20223;-71
2022/10/03 12:21:04;;;;;;;1999.90;999.90;;;;;;;16.93;100.00;96193.66;6260558;22;20184;-71
2022/10/03 12:23:58;;;;;;;1999.90;999.90;;;;;;;16.87;100.00;96195.34;6285644;22;20211;-70
2022/10/03 12:26:51;;;;;;;1999.90;999.90;;;;;;;16.82;100.00;96193.09;6286380;22;20182;-71
2022/10/03 12:29:19;;;;;;;1999.90;999.90;;;;;;;16.98;100.00;96180.13;6251474;22;20238;-71
2022/10/03 12:32:04;;;;;;;1999.90;999.90;;;;;;;16.99;100.00;96175.38;6260596;22;20173;-70